Airfield :
LOGIN :

Register | Disclaimer

   EN    FR    IT 

 










Legend :    VFR   Marginal VFR   IFR   Intensive IFR   Very Intensive IFR
Visi :
Ceiling :
>= 8 km
>= 3000ft
5 to 8 km
1000 to 3000 ft
1500m to 5 km
500 to 1000 ft
800 to 1500m
200 to 500 ft
< 800m
< 200 ft
Symbols :   Thunderstorms  Fog  Heavy snow  Heavy precipitations  Wind > 20 kt
SIGMETs :     Misc.  Thunderstorms  Icing  Turbulence  Mountain Waves  Volcanic Ashes






- Airport Elevation : 459 ft
- IATA code : CER


LFRC - Cherbourg / Maupertus

CURRENT METAR :
  • 300830Z AUTO 20006KT 9999 FEW023 14/11 Q1011 BECMG 23015G25KT

EXPIRED METARs :
  • 300800Z AUTO 18005KT 9999 FEW025 12/09 Q1011 NOSIG
  • 300730Z AUTO 19005KT CAVOK 11/10 Q1011 NOSIG
  • 300700Z AUTO 20004KT CAVOK 10/09 Q1011 NOSIG
  • 300630Z AUTO 20005KT CAVOK 09/08 Q1010 NOSIG
  • 300600Z AUTO 21005KT CAVOK 09/07 Q1011 NOSIG

TAF TAF LFRC
Valid from the 30 at 09:00 until the 30 at 18:00 UTC


300800Z 3009/3018 20010KT 9999 SCT025
BECMG 3010/3012 23015G25KT
TEMPO 3014/3016 -RA BKN014
BECMG 3016/3018 21020G35KT 4000 RA OVC010



MET'MAP, your aeronautical weather chart ! - Copyright ORBIFLY December 2007 - Disclaimer

ORBIFLY MET'MAP TEAM :

Programming & Development : Alexandra Zaïnal
Original concept : Baudouin d'Aumeries
Technical & hardware support : Manuel Goepfert
Assistance : Marc-Olivier Méhu




SOURCES & CREDITS :

   NOAA